createdAt,value
2019-05-03T00:00:06.154Z,0.00
2019-05-03T00:01:06.143Z,0.00
2019-05-03T00:02:06.119Z,0.00
2019-05-03T00:03:06.105Z,0.00
2019-05-03T00:04:06.080Z,0.00
2019-05-03T00:05:06.060Z,0.00
2019-05-03T00:06:06.042Z,0.00
2019-05-03T00:07:06.026Z,0.00
2019-05-03T00:08:06.015Z,0.00
2019-05-03T00:09:05.985Z,0.00
2019-05-03T00:10:05.969Z,0.00
2019-05-03T00:11:05.949Z,0.00
2019-05-03T00:12:05.935Z,0.00
2019-05-03T00:13:05.918Z,0.00
2019-05-03T00:14:05.895Z,0.00
2019-05-03T00:15:05.884Z,0.00
2019-05-03T00:16:05.855Z,0.00
2019-05-03T00:17:05.837Z,0.00
2019-05-03T00:18:05.823Z,0.00
2019-05-03T00:19:05.814Z,0.00
2019-05-03T00:20:05.784Z,0.00
2019-05-03T00:21:05.764Z,0.00
2019-05-03T00:22:05.745Z,0.00
2019-05-03T00:23:05.728Z,0.00
2019-05-03T00:24:05.707Z,0.00
2019-05-03T00:25:08.328Z,0.00
2019-05-03T00:26:05.672Z,0.00
2019-05-03T00:27:05.653Z,0.00
2019-05-03T00:28:05.635Z,0.00
2019-05-03T00:29:05.640Z,0.00
2019-05-03T00:30:05.600Z,0.00
2019-05-03T00:31:05.580Z,0.00
2019-05-03T00:32:05.564Z,0.00
2019-05-03T00:33:05.556Z,0.00
2019-05-03T00:34:05.524Z,0.00
2019-05-03T00:35:05.512Z,0.00
2019-05-03T00:36:05.487Z,0.00
2019-05-03T00:37:05.468Z,0.00
2019-05-03T00:38:05.452Z,0.00
2019-05-03T00:39:05.432Z,0.00
2019-05-03T00:40:05.411Z,0.00
2019-05-03T00:41:05.394Z,0.00
2019-05-03T00:42:05.380Z,0.00
2019-05-03T00:43:05.362Z,0.00
2019-05-03T00:44:05.339Z,0.00
2019-05-03T00:45:05.321Z,0.00
2019-05-03T00:46:05.302Z,0.00
2019-05-03T00:47:05.286Z,0.00
2019-05-03T00:48:05.267Z,0.00
2019-05-03T00:49:05.245Z,0.00
2019-05-03T00:50:05.228Z,0.00
2019-05-03T00:51:05.215Z,0.00
2019-05-03T00:52:05.188Z,0.00
2019-05-03T00:53:05.176Z,0.00
2019-05-03T00:54:05.151Z,0.00
2019-05-03T00:55:15.722Z,0.00
2019-05-03T00:56:05.118Z,0.00
2019-05-03T00:57:05.096Z,0.00
2019-05-03T00:58:05.076Z,0.00
2019-05-03T00:59:05.060Z,0.00
2019-05-03T01:00:05.046Z,0.00
2019-05-03T01:01:05.019Z,0.00
2019-05-03T01:02:05.003Z,0.00
2019-05-03T01:03:04.986Z,0.00
2019-05-03T01:04:04.966Z,0.00
2019-05-03T01:05:04.949Z,0.00
2019-05-03T01:06:04.929Z,0.00
2019-05-03T01:07:04.913Z,0.00
2019-05-03T01:08:04.897Z,0.00
2019-05-03T01:09:04.874Z,0.00
2019-05-03T01:10:04.855Z,0.00
2019-05-03T01:11:04.835Z,0.00
2019-05-03T01:12:04.815Z,0.00
2019-05-03T01:13:04.805Z,0.00
2019-05-03T01:14:04.778Z,0.00
2019-05-03T01:15:04.758Z,0.00
2019-05-03T01:16:04.739Z,0.00
2019-05-03T01:17:04.723Z,0.00
2019-05-03T01:18:04.703Z,0.00
2019-05-03T01:19:04.686Z,0.00
2019-05-03T01:20:04.665Z,0.00
2019-05-03T01:21:04.645Z,0.00
2019-05-03T01:22:04.643Z,0.00
2019-05-03T01:23:04.614Z,0.00
2019-05-03T01:24:04.590Z,0.00
2019-05-03T01:25:04.571Z,0.00
2019-05-03T01:26:04.557Z,0.00
2019-05-03T01:27:04.534Z,0.00
2019-05-03T01:28:04.516Z,0.00
2019-05-03T01:29:04.500Z,0.00
2019-05-03T01:30:04.481Z,0.00
2019-05-03T01:31:04.462Z,0.00
2019-05-03T01:32:04.441Z,0.00
2019-05-03T01:33:04.426Z,0.00
2019-05-03T01:34:04.403Z,0.00
2019-05-03T01:35:04.385Z,0.00
2019-05-03T01:36:04.367Z,0.00
2019-05-03T01:37:04.349Z,0.00
2019-05-03T01:38:04.330Z,0.00
2019-05-03T01:39:04.311Z,0.00
2019-05-03T01:40:04.292Z,0.00
2019-05-03T01:41:04.303Z,0.00
2019-05-03T01:42:04.255Z,0.00
2019-05-03T01:43:04.238Z,0.00
2019-05-03T01:44:04.215Z,0.00
2019-05-03T01:45:04.208Z,0.00
2019-05-03T01:46:04.179Z,0.00
2019-05-03T01:47:04.161Z,0.00
2019-05-03T01:48:04.151Z,0.00
2019-05-03T01:49:04.126Z,0.00
2019-05-03T01:50:04.105Z,0.00
2019-05-03T01:51:04.100Z,0.00
2019-05-03T01:52:04.067Z,0.00
2019-05-03T01:53:04.055Z,0.00
2019-05-03T01:54:04.029Z,0.00
2019-05-03T01:55:04.023Z,0.00
2019-05-03T01:56:03.991Z,0.00
2019-05-03T01:57:03.971Z,0.00
2019-05-03T01:58:03.957Z,0.00
2019-05-03T01:59:03.938Z,0.00
2019-05-03T02:00:03.919Z,0.00
2019-05-03T02:01:03.900Z,0.00
2019-05-03T02:02:03.879Z,0.00
2019-05-03T02:03:03.867Z,0.00
2019-05-03T02:04:03.841Z,0.00
2019-05-03T02:05:03.821Z,0.00
2019-05-03T02:06:03.803Z,0.00
2019-05-03T02:07:03.790Z,0.00
2019-05-03T02:08:03.764Z,0.00
2019-05-03T02:09:03.747Z,0.00
2019-05-03T02:10:03.728Z,0.00
2019-05-03T02:11:03.708Z,0.00
2019-05-03T02:12:03.695Z,0.00
2019-05-03T02:13:03.674Z,0.00
2019-05-03T02:14:03.650Z,0.00
2019-05-03T02:15:03.640Z,0.00
2019-05-03T02:16:03.617Z,0.00
2019-05-03T02:17:03.595Z,0.00
2019-05-03T02:18:03.576Z,0.00
2019-05-03T02:19:03.558Z,0.00
2019-05-03T02:20:03.546Z,0.00
2019-05-03T02:21:03.521Z,0.00
2019-05-03T02:22:03.506Z,0.00
2019-05-03T02:23:03.482Z,0.00
2019-05-03T02:24:03.464Z,0.00
2019-05-03T02:25:03.450Z,0.00
2019-05-03T02:26:03.449Z,0.00
2019-05-03T02:27:03.407Z,0.00
2019-05-03T02:28:03.387Z,0.00
2019-05-03T02:29:03.371Z,0.00
2019-05-03T02:30:03.476Z,0.00
2019-05-03T02:31:03.718Z,0.00
2019-05-03T02:32:03.613Z,0.00
2019-05-03T02:33:04.318Z,0.00
2019-05-03T02:34:03.727Z,0.00
2019-05-03T02:35:03.260Z,0.00
2019-05-03T02:36:03.843Z,0.00
2019-05-03T02:37:03.393Z,0.00
2019-05-03T02:38:03.695Z,0.00
2019-05-03T02:39:03.193Z,0.00
2019-05-03T02:40:04.299Z,0.00
2019-05-03T02:41:03.267Z,0.00
2019-05-03T02:42:10.879Z,0.00
2019-05-03T02:43:05.440Z,0.00
2019-05-03T02:44:03.095Z,0.00
2019-05-03T02:45:03.072Z,0.00
2019-05-03T02:46:05.636Z,0.00
2019-05-03T02:47:05.484Z,0.00
2019-05-03T02:48:05.841Z,0.00
2019-05-03T02:49:02.999Z,0.00
2019-05-03T02:50:05.664Z,0.00
2019-05-03T02:51:02.961Z,0.00
2019-05-03T02:52:02.942Z,0.00
2019-05-03T02:53:05.608Z,0.00
2019-05-03T02:54:05.430Z,0.00
2019-05-03T02:55:02.890Z,0.00
2019-05-03T02:56:15.043Z,0.00
2019-05-03T02:57:02.847Z,0.00
2019-05-03T02:58:05.572Z,0.00
2019-05-03T02:59:02.805Z,0.00
2019-05-03T03:00:04.893Z,0.00
2019-05-03T03:01:02.767Z,0.00
2019-05-03T03:02:02.753Z,0.00
2019-05-03T03:03:04.964Z,0.00
2019-05-03T03:04:05.117Z,0.00
2019-05-03T03:05:05.628Z,0.00
2019-05-03T03:06:02.678Z,0.00
2019-05-03T03:07:02.661Z,0.00
2019-05-03T03:08:05.760Z,0.00
2019-05-03T03:09:05.311Z,0.00
2019-05-03T03:10:05.108Z,0.00
2019-05-03T03:11:02.580Z,0.00
2019-05-03T03:12:02.560Z,0.00
2019-05-03T03:13:02.543Z,0.00
2019-05-03T03:14:02.522Z,0.00
2019-05-03T03:15:02.507Z,0.00
2019-05-03T03:16:02.484Z,0.00
2019-05-03T03:17:02.465Z,0.00
2019-05-03T03:18:02.447Z,0.00
2019-05-03T03:19:02.453Z,0.00
2019-05-03T03:20:05.221Z,0.00
2019-05-03T03:21:02.390Z,0.00
2019-05-03T03:22:02.370Z,0.00
2019-05-03T03:23:02.352Z,0.00
2019-05-03T03:24:02.360Z,0.00
2019-05-03T03:25:02.325Z,0.00
2019-05-03T03:26:02.298Z,0.00
2019-05-03T03:27:02.283Z,0.00
2019-05-03T03:28:02.280Z,0.00
2019-05-03T03:29:05.319Z,0.00
2019-05-03T03:30:02.246Z,0.00
2019-05-03T03:31:02.202Z,0.00
2019-05-03T03:32:02.185Z,0.00
2019-05-03T03:33:02.165Z,0.00
2019-05-03T03:34:02.148Z,0.00
2019-05-03T03:35:06.108Z,0.00
2019-05-03T03:36:31.579Z,0.00
2019-05-03T03:37:06.531Z,0.00
2019-05-03T03:38:02.074Z,0.00
2019-05-03T03:39:02.049Z,0.00
2019-05-03T03:40:02.034Z,0.00
2019-05-03T03:41:02.012Z,0.00
2019-05-03T03:42:01.992Z,0.00
2019-05-03T03:43:01.975Z,0.00
2019-05-03T03:44:01.953Z,0.00
2019-05-03T03:45:01.939Z,0.00
2019-05-03T03:46:01.922Z,0.00
2019-05-03T03:47:01.899Z,0.00
2019-05-03T03:48:01.881Z,0.00
2019-05-03T03:49:01.859Z,0.00
2019-05-03T03:50:01.863Z,0.00
2019-05-03T03:51:01.828Z,0.00
2019-05-03T03:52:01.800Z,0.00
2019-05-03T03:53:01.785Z,0.00
2019-05-03T03:54:01.764Z,0.00
2019-05-03T03:55:01.746Z,0.00
2019-05-03T03:56:01.742Z,0.00
2019-05-03T03:57:04.795Z,0.00
2019-05-03T03:58:01.689Z,0.00
2019-05-03T03:59:01.679Z,0.00
2019-05-03T04:00:01.669Z,0.00
2019-05-03T04:01:01.634Z,0.00
2019-05-03T04:02:01.613Z,0.00
2019-05-03T04:03:01.598Z,0.00
2019-05-03T04:04:01.580Z,0.00
2019-05-03T04:05:01.555Z,0.00
2019-05-03T04:06:01.538Z,0.00
2019-05-03T04:07:01.748Z,0.00
2019-05-03T04:08:01.497Z,0.00
2019-05-03T04:09:01.490Z,0.00
2019-05-03T04:10:01.457Z,0.00
2019-05-03T04:11:01.458Z,0.00
2019-05-03T04:12:01.427Z,0.00
2019-05-03T04:13:01.404Z,0.00
2019-05-03T04:14:01.386Z,0.00
2019-05-03T04:15:01.396Z,0.00
2019-05-03T04:16:01.346Z,0.00
2019-05-03T04:17:01.332Z,0.00
2019-05-03T04:18:01.304Z,0.00
2019-05-03T04:19:01.306Z,0.00
2019-05-03T04:20:01.285Z,0.00
2019-05-03T04:21:01.248Z,0.00
2019-05-03T04:22:01.229Z,0.00
2019-05-03T04:23:01.213Z,0.00
2019-05-03T04:24:01.191Z,0.00
2019-05-03T04:25:01.186Z,0.00
2019-05-03T04:26:01.157Z,5.63
2019-05-03T04:27:15.673Z,5.63
2019-05-03T04:28:01.115Z,5.63
2019-05-03T04:29:01.112Z,5.63
2019-05-03T04:30:01.076Z,5.63
2019-05-03T04:31:01.066Z,5.63
2019-05-03T04:32:01.038Z,5.63
2019-05-03T04:33:01.021Z,5.63
2019-05-03T04:34:01.001Z,5.63
2019-05-03T04:35:01.003Z,5.63
2019-05-03T04:36:00.963Z,5.63
2019-05-03T04:37:00.947Z,5.63
2019-05-03T04:38:00.928Z,11.25
2019-05-03T04:39:00.907Z,11.25
2019-05-03T04:40:00.892Z,11.25
2019-05-03T04:41:00.874Z,11.25
2019-05-03T04:42:00.855Z,11.25
2019-05-03T04:43:00.834Z,11.25
2019-05-03T04:44:00.832Z,11.25
2019-05-03T04:45:00.792Z,11.25
2019-05-03T04:46:00.791Z,11.25
2019-05-03T04:47:00.755Z,11.25
2019-05-03T04:48:00.735Z,16.88
2019-05-03T04:49:00.714Z,16.88
2019-05-03T04:50:00.701Z,16.88
2019-05-03T04:51:00.678Z,16.88
2019-05-03T04:52:00.662Z,16.88
2019-05-03T04:53:00.640Z,22.50
2019-05-03T04:54:00.630Z,22.50
2019-05-03T04:55:00.607Z,22.50
2019-05-03T04:56:00.582Z,22.50
2019-05-03T04:57:00.567Z,28.13
2019-05-03T04:58:00.553Z,28.13
2019-05-03T04:59:00.531Z,28.13
2019-05-03T05:00:00.506Z,28.13
2019-05-03T05:01:00.487Z,33.75
2019-05-03T05:02:00.466Z,33.75
2019-05-03T05:03:00.449Z,33.75
2019-05-03T05:04:00.427Z,33.75
2019-05-03T05:05:00.429Z,33.75
2019-05-03T05:06:00.387Z,33.75
2019-05-03T05:07:00.374Z,39.38
2019-05-03T05:08:00.359Z,39.38
2019-05-03T05:09:00.347Z,39.38
2019-05-03T05:10:00.313Z,39.38
2019-05-03T05:11:00.295Z,39.38
2019-05-03T05:12:00.278Z,39.38
2019-05-03T05:13:00.258Z,39.38
2019-05-03T05:14:00.238Z,39.38
2019-05-03T05:15:00.218Z,39.38
2019-05-03T05:16:00.206Z,39.38
2019-05-03T05:17:00.181Z,39.38
2019-05-03T05:18:00.164Z,39.38
2019-05-03T05:19:00.148Z,39.38
2019-05-03T05:20:00.125Z,39.38
2019-05-03T05:21:00.104Z,39.38
2019-05-03T05:22:02.983Z,45.00
2019-05-03T05:23:00.066Z,45.00
2019-05-03T05:24:00.046Z,45.00
2019-05-03T05:25:00.028Z,50.63
2019-05-03T05:26:00.019Z,50.63
2019-05-03T05:26:59.998Z,50.63
2019-05-03T05:27:59.970Z,50.63
2019-05-03T05:28:59.951Z,56.25
2019-05-03T05:29:59.931Z,56.25
2019-05-03T05:30:59.920Z,61.88
2019-05-03T05:31:59.891Z,61.88
2019-05-03T05:32:59.895Z,61.88
2019-05-03T05:33:59.861Z,61.88
2019-05-03T05:34:59.834Z,61.88
2019-05-03T05:35:59.815Z,67.50
2019-05-03T05:36:59.796Z,67.50
2019-05-03T05:37:59.781Z,67.50
2019-05-03T05:38:59.762Z,73.13
2019-05-03T05:39:59.739Z,73.13
2019-05-03T05:40:59.720Z,78.75
2019-05-03T05:41:59.708Z,78.75
2019-05-03T05:42:59.685Z,84.38
2019-05-03T05:43:59.669Z,90.00
2019-05-03T05:44:59.665Z,101.25
2019-05-03T05:45:59.628Z,95.63
2019-05-03T05:46:59.608Z,95.63
2019-05-03T05:47:59.592Z,101.25
2019-05-03T05:48:59.577Z,106.88
2019-05-03T05:49:59.560Z,101.25
2019-05-03T05:50:59.532Z,101.25
2019-05-03T05:51:59.513Z,101.25
2019-05-03T05:52:59.502Z,101.25
2019-05-03T05:53:59.476Z,101.25
2019-05-03T05:54:59.462Z,101.25
2019-05-03T05:55:59.443Z,101.25
2019-05-03T05:56:59.422Z,95.63
2019-05-03T05:58:04.689Z,101.25
2019-05-03T05:58:59.392Z,95.63
2019-05-03T05:59:59.365Z,84.38
2019-05-03T06:00:59.347Z,95.63
2019-05-03T06:01:59.330Z,95.63
2019-05-03T06:02:59.310Z,101.25
2019-05-03T06:03:59.289Z,95.63
2019-05-03T06:04:59.273Z,101.25
2019-05-03T06:05:59.253Z,101.25
2019-05-03T06:06:59.239Z,101.25
2019-05-03T06:07:59.221Z,101.25
2019-05-03T06:08:59.200Z,106.88
2019-05-03T06:09:59.179Z,106.88
2019-05-03T06:10:59.158Z,118.13
2019-05-03T06:11:59.138Z,129.38
2019-05-03T06:12:59.122Z,135.00
2019-05-03T06:13:59.106Z,146.25
2019-05-03T06:14:59.092Z,157.50
2019-05-03T06:15:59.064Z,168.75
2019-05-03T06:16:59.049Z,168.75
2019-05-03T06:17:59.032Z,168.75
2019-05-03T06:18:59.009Z,174.38
2019-05-03T06:19:58.993Z,180.00
2019-05-03T06:20:58.972Z,180.00
2019-05-03T06:21:58.957Z,185.63
2019-05-03T06:22:58.945Z,185.63
2019-05-03T06:23:58.925Z,185.63
2019-05-03T06:24:58.904Z,191.25
2019-05-03T06:25:58.883Z,202.50
2019-05-03T06:26:58.873Z,202.50
2019-05-03T06:27:58.849Z,208.13
2019-05-03T06:28:58.832Z,208.13
2019-05-03T06:29:58.813Z,208.13
2019-05-03T06:30:58.800Z,191.25
2019-05-03T06:31:58.774Z,191.25
2019-05-03T06:32:58.769Z,185.63
2019-05-03T06:33:58.736Z,185.63
2019-05-03T06:34:58.718Z,202.50
2019-05-03T06:35:58.701Z,208.13
2019-05-03T06:36:58.687Z,219.38
2019-05-03T06:37:58.671Z,219.38
2019-05-03T06:38:58.657Z,225.00
2019-05-03T06:39:58.639Z,213.75
2019-05-03T06:40:58.616Z,230.63
2019-05-03T06:41:58.596Z,213.75
2019-05-03T06:43:08.330Z,236.25
2019-05-03T06:43:58.564Z,225.00
2019-05-03T06:44:59.663Z,219.38
2019-05-03T06:45:58.527Z,196.88
2019-05-03T06:47:01.115Z,180.00
2019-05-03T06:47:58.510Z,174.38
2019-05-03T06:49:01.024Z,174.38
2019-05-03T06:49:58.464Z,168.75
2019-05-03T06:51:00.305Z,163.13
2019-05-03T06:51:58.426Z,163.13
2019-05-03T06:52:59.844Z,180.00
2019-05-03T06:53:58.394Z,196.88
2019-05-03T06:55:00.484Z,191.25
2019-05-03T06:55:58.356Z,213.75
2019-05-03T06:57:00.071Z,230.63
2019-05-03T06:57:58.328Z,230.63
2019-05-03T06:58:58.314Z,213.75
2019-05-03T06:59:58.285Z,191.25
2019-05-03T07:00:58.274Z,196.88
2019-05-03T07:01:58.250Z,196.88
2019-05-03T07:02:58.234Z,202.50
2019-05-03T07:03:58.218Z,174.38
2019-05-03T07:04:58.204Z,157.50
2019-05-03T07:05:58.186Z,180.00
2019-05-03T07:06:58.168Z,196.88
2019-05-03T07:07:58.157Z,219.38
2019-05-03T07:08:58.133Z,225.00
2019-05-03T07:09:58.118Z,213.75
2019-05-03T07:10:58.189Z,241.88
2019-05-03T07:11:58.081Z,270.00
2019-05-03T07:12:58.078Z,247.50
2019-05-03T07:13:58.049Z,258.75
2019-05-03T07:14:58.034Z,230.63
2019-05-03T07:15:58.017Z,230.63
2019-05-03T07:16:58.003Z,219.38
2019-05-03T07:17:57.978Z,185.63
2019-05-03T07:18:58.622Z,253.13
2019-05-03T07:19:57.946Z,213.75
2019-05-03T07:20:57.929Z,151.88
2019-05-03T07:21:57.921Z,180.00
2019-05-03T07:22:57.901Z,135.00
2019-05-03T07:23:57.882Z,112.50
2019-05-03T07:24:57.864Z,95.63
2019-05-03T07:25:57.852Z,90.00
2019-05-03T07:26:59.139Z,90.00
2019-05-03T07:27:57.816Z,84.38
2019-05-03T07:28:57.796Z,101.25
2019-05-03T07:29:57.780Z,900.00
2019-05-03T07:30:57.768Z,219.38
2019-05-03T07:31:57.755Z,123.75
2019-05-03T07:32:57.734Z,118.13
2019-05-03T07:33:57.724Z,118.13
2019-05-03T07:34:57.697Z,112.50
2019-05-03T07:35:57.681Z,106.88
2019-05-03T07:36:57.666Z,101.25
2019-05-03T07:37:57.655Z,101.25
2019-05-03T07:38:57.640Z,95.63
2019-05-03T07:39:57.611Z,90.00
2019-05-03T07:40:57.597Z,84.38
2019-05-03T07:41:57.578Z,84.38
2019-05-03T07:42:57.563Z,84.38
2019-05-03T07:43:57.543Z,95.63
2019-05-03T07:44:57.534Z,90.00
2019-05-03T07:45:57.506Z,90.00
2019-05-03T07:46:57.491Z,90.00
2019-05-03T07:47:57.482Z,90.00
2019-05-03T07:48:57.452Z,90.00
2019-05-03T07:49:57.436Z,95.63
2019-05-03T07:50:57.432Z,106.88
2019-05-03T07:51:57.411Z,123.75
2019-05-03T07:52:57.382Z,1659.38
2019-05-03T07:53:57.366Z,1710.00
2019-05-03T07:54:57.352Z,1698.75
2019-05-03T07:55:57.334Z,1721.25
2019-05-03T07:56:57.330Z,1721.25
2019-05-03T07:57:57.307Z,1743.75
2019-05-03T07:59:02.652Z,1906.88
2019-05-03T07:59:57.280Z,1715.63
2019-05-03T08:01:06.204Z,1670.63
2019-05-03T08:01:57.257Z,1743.75
2019-05-03T08:02:57.259Z,1726.88
2019-05-03T08:03:57.234Z,1670.63
2019-05-03T08:04:57.230Z,1552.50
2019-05-03T08:05:57.212Z,1586.25
2019-05-03T08:06:57.203Z,1524.38
2019-05-03T08:07:57.202Z,967.50
2019-05-03T08:08:57.187Z,1468.13
2019-05-03T08:09:57.186Z,196.88
2019-05-03T08:10:57.166Z,174.38
2019-05-03T08:11:57.167Z,163.13
2019-05-03T08:12:57.150Z,151.88
2019-05-03T08:13:57.151Z,146.25
2019-05-03T08:14:57.130Z,129.38
2019-05-03T08:15:57.120Z,135.00
2019-05-03T08:16:57.109Z,191.25
2019-05-03T08:17:57.096Z,1451.25
2019-05-03T08:18:57.086Z,196.88
2019-05-03T08:19:57.074Z,174.38
2019-05-03T08:20:57.062Z,168.75
2019-05-03T08:21:57.059Z,174.38
2019-05-03T08:22:57.039Z,185.63
2019-05-03T08:23:57.026Z,675.00
2019-05-03T08:24:57.016Z,1558.13
2019-05-03T08:25:57.023Z,1518.75
2019-05-03T08:26:56.996Z,1344.38
2019-05-03T08:27:56.981Z,1501.88
2019-05-03T08:28:56.973Z,1541.25
2019-05-03T08:29:56.959Z,1524.38
2019-05-03T08:30:56.955Z,1136.25
2019-05-03T08:31:56.940Z,1198.13
2019-05-03T08:32:56.932Z,337.50
2019-05-03T08:33:56.931Z,241.88
2019-05-03T08:34:56.913Z,202.50
2019-05-03T08:35:56.899Z,180.00
2019-05-03T08:36:56.892Z,168.75
2019-05-03T08:37:56.878Z,163.13
2019-05-03T08:38:56.866Z,168.75
2019-05-03T08:39:56.854Z,185.63
2019-05-03T08:40:56.845Z,196.88
2019-05-03T08:41:56.843Z,174.38
2019-05-03T08:42:56.829Z,163.13
2019-05-03T08:43:56.811Z,157.50
2019-05-03T08:44:56.794Z,157.50
2019-05-03T08:45:56.784Z,146.25
2019-05-03T08:46:56.772Z,140.63
2019-05-03T08:47:56.756Z,146.25
2019-05-03T08:48:56.745Z,140.63
2019-05-03T08:49:56.729Z,135.00
2019-05-03T08:50:56.723Z,135.00
2019-05-03T08:51:56.702Z,151.88
2019-05-03T08:52:56.688Z,236.25
2019-05-03T08:53:56.676Z,1485.00
2019-05-03T08:54:56.671Z,1468.13
2019-05-03T08:55:56.649Z,1181.25
2019-05-03T08:56:56.646Z,1186.88
2019-05-03T08:57:56.623Z,1254.38
2019-05-03T08:58:56.617Z,483.75
2019-05-03T08:59:56.597Z,675.00
2019-05-03T09:00:56.588Z,720.00
2019-05-03T09:01:56.581Z,281.25
2019-05-03T09:02:56.562Z,236.25
2019-05-03T09:03:56.549Z,303.75
2019-05-03T09:04:56.540Z,331.88
2019-05-03T09:05:56.625Z,365.63
2019-05-03T09:06:56.519Z,208.13
2019-05-03T09:07:56.503Z,174.38
2019-05-03T09:08:57.351Z,151.88
2019-05-03T09:09:56.480Z,129.38
2019-05-03T09:10:56.477Z,118.13
2019-05-03T09:11:56.460Z,112.50
2019-05-03T09:12:56.437Z,106.88
2019-05-03T09:13:56.431Z,101.25
2019-05-03T09:14:56.423Z,101.25
2019-05-03T09:15:56.432Z,101.25
2019-05-03T09:16:56.391Z,112.50
2019-05-03T09:17:56.380Z,157.50
2019-05-03T09:18:56.367Z,1231.88
2019-05-03T09:19:56.406Z,1243.13
2019-05-03T09:20:56.329Z,1305.00
2019-05-03T09:21:56.318Z,1316.25
2019-05-03T09:22:56.318Z,1035.00
2019-05-03T09:23:56.291Z,298.13
2019-05-03T09:24:56.278Z,618.75
2019-05-03T09:25:56.272Z,1316.25
2019-05-03T09:26:56.252Z,1220.63
2019-05-03T09:27:56.243Z,270.00
2019-05-03T09:28:56.228Z,225.00
2019-05-03T09:29:56.220Z,219.38
2019-05-03T09:30:56.201Z,219.38
2019-05-03T09:31:56.189Z,286.88
2019-05-03T09:32:56.177Z,1001.25
2019-05-03T09:33:56.167Z,1018.13
2019-05-03T09:34:56.154Z,286.88
2019-05-03T09:35:56.135Z,241.88
2019-05-03T09:36:56.128Z,208.13
2019-05-03T09:37:56.114Z,191.25
2019-05-03T09:38:56.101Z,174.38
2019-05-03T09:39:56.091Z,157.50
2019-05-03T09:40:56.074Z,157.50
2019-05-03T09:41:56.059Z,157.50
2019-05-03T09:42:56.048Z,146.25
2019-05-03T09:43:56.036Z,140.63
2019-05-03T09:44:56.037Z,135.00
2019-05-03T09:45:56.017Z,123.75
2019-05-03T09:46:55.996Z,118.13
2019-05-03T09:47:55.982Z,118.13
2019-05-03T09:49:03.586Z,118.13
2019-05-03T09:49:56.047Z,123.75
2019-05-03T09:50:55.943Z,129.38
2019-05-03T09:51:55.947Z,202.50
2019-05-03T09:52:55.915Z,292.50
2019-05-03T09:53:55.922Z,303.75
2019-05-03T09:54:55.891Z,331.88
2019-05-03T09:55:55.872Z,365.63
2019-05-03T09:56:58.567Z,371.25
2019-05-03T09:57:55.843Z,331.88
2019-05-03T09:58:55.874Z,275.63
2019-05-03T09:59:59.717Z,264.38
2019-05-03T10:00:55.822Z,253.13
2019-05-03T10:01:55.793Z,247.50
2019-05-03T10:02:55.788Z,236.25
2019-05-03T10:03:55.762Z,219.38
2019-05-03T10:04:55.762Z,208.13
2019-05-03T10:05:55.748Z,196.88
2019-05-03T10:06:55.734Z,180.00
2019-05-03T10:07:55.709Z,174.38
2019-05-03T10:08:55.692Z,157.50
2019-05-03T10:09:55.677Z,163.13
2019-05-03T10:10:55.665Z,151.88
2019-05-03T10:11:55.663Z,157.50
2019-05-03T10:12:55.634Z,281.25
2019-05-03T10:13:56.447Z,196.88
2019-05-03T10:14:55.612Z,196.88
2019-05-03T10:15:55.593Z,292.50
2019-05-03T10:16:55.578Z,343.13
2019-05-03T10:17:55.638Z,360.00
2019-05-03T10:18:55.550Z,365.63
2019-05-03T10:19:55.535Z,360.00
2019-05-03T10:20:56.284Z,343.13
2019-05-03T10:21:55.507Z,354.38
2019-05-03T10:22:55.496Z,331.88
2019-05-03T10:23:55.480Z,309.38
2019-05-03T10:24:55.466Z,225.00
2019-05-03T10:25:55.454Z,236.25
2019-05-03T10:26:55.441Z,337.50
2019-05-03T10:27:55.436Z,343.13
2019-05-03T10:28:55.422Z,393.75
2019-05-03T10:30:09.078Z,320.63
2019-05-03T10:30:55.395Z,286.88
2019-05-03T10:31:55.374Z,236.25
2019-05-03T10:32:55.362Z,219.38
2019-05-03T10:33:55.350Z,219.38
2019-05-03T10:34:55.337Z,202.50
2019-05-03T10:35:55.324Z,185.63
2019-05-03T10:36:55.310Z,174.38
2019-05-03T10:37:55.298Z,157.50
2019-05-03T10:38:55.559Z,140.63
2019-05-03T10:39:55.996Z,123.75
2019-05-03T10:40:55.261Z,112.50
2019-05-03T10:41:55.243Z,106.88
2019-05-03T10:42:55.400Z,101.25
2019-05-03T10:43:55.778Z,84.38
2019-05-03T10:44:55.597Z,78.75
2019-05-03T10:45:55.813Z,73.13
2019-05-03T10:46:55.900Z,73.13
2019-05-03T10:47:55.160Z,73.13
2019-05-03T10:48:55.750Z,78.75
2019-05-03T10:49:55.138Z,84.38
2019-05-03T10:50:56.390Z,90.00
2019-05-03T10:51:55.102Z,95.63
2019-05-03T10:52:55.661Z,101.25
2019-05-03T10:53:55.075Z,101.25
2019-05-03T10:54:55.815Z,106.88
2019-05-03T10:55:55.661Z,118.13
2019-05-03T10:56:55.948Z,129.38
2019-05-03T10:57:55.010Z,140.63
2019-05-03T10:58:55.119Z,270.00
2019-05-03T10:59:55.547Z,270.00
2019-05-03T11:00:56.728Z,253.13
2019-05-03T11:01:54.960Z,292.50
2019-05-03T11:02:55.111Z,219.38
2019-05-03T11:03:54.928Z,219.38
2019-05-03T11:04:55.011Z,230.63
2019-05-03T11:05:54.913Z,230.63
2019-05-03T11:06:55.147Z,225.00
2019-05-03T11:07:55.590Z,275.63
2019-05-03T11:08:54.859Z,264.38
2019-05-03T11:09:55.235Z,247.50
2019-05-03T11:10:55.033Z,236.25
2019-05-03T11:11:55.547Z,275.63
2019-05-03T11:12:54.925Z,360.00
2019-05-03T11:13:54.774Z,320.63
2019-05-03T11:14:54.778Z,225.00
2019-05-03T11:15:54.956Z,213.75
2019-05-03T11:16:55.274Z,225.00
2019-05-03T11:17:54.990Z,208.13
2019-05-03T11:18:54.974Z,208.13
2019-05-03T11:19:54.847Z,303.75
2019-05-03T11:20:54.684Z,180.00
2019-05-03T11:21:54.879Z,168.75
2019-05-03T11:22:54.846Z,157.50
2019-05-03T11:23:54.683Z,146.25
2019-05-03T11:24:54.760Z,129.38
2019-05-03T11:25:55.412Z,123.75
2019-05-03T11:26:55.784Z,112.50
2019-05-03T11:27:55.233Z,112.50
2019-05-03T11:28:59.231Z,118.13
2019-05-03T11:29:55.564Z,123.75
2019-05-03T11:30:59.898Z,129.38
2019-05-03T11:31:55.095Z,135.00
2019-05-03T11:32:55.657Z,140.63
2019-05-03T11:33:55.333Z,140.63
2019-05-03T11:34:55.414Z,157.50
2019-05-03T11:35:55.210Z,219.38
2019-05-03T11:36:54.912Z,196.88
2019-05-03T11:37:54.445Z,253.13
2019-05-03T11:38:55.824Z,320.63
2019-05-03T11:39:55.833Z,253.13
2019-05-03T11:40:55.991Z,303.75
2019-05-03T11:41:54.378Z,343.13
2019-05-03T11:42:55.365Z,343.13
2019-05-03T11:43:54.352Z,309.38
2019-05-03T11:44:54.340Z,219.38
2019-05-03T11:45:55.497Z,208.13
2019-05-03T11:46:55.081Z,326.25
2019-05-03T11:47:55.047Z,196.88
2019-05-03T11:48:54.855Z,185.63
2019-05-03T11:49:54.719Z,180.00
2019-05-03T11:50:54.679Z,168.75
2019-05-03T11:51:55.634Z,157.50
2019-05-03T11:52:55.413Z,151.88
2019-05-03T11:53:54.221Z,151.88
2019-05-03T11:54:55.291Z,151.88
2019-05-03T11:55:55.183Z,151.88
2019-05-03T11:56:55.655Z,157.50
2019-05-03T11:57:56.409Z,168.75
2019-05-03T11:58:55.011Z,174.38
2019-05-03T11:59:54.786Z,270.00
2019-05-03T12:01:10.804Z,196.88
2019-05-03T12:01:55.351Z,309.38
2019-05-03T12:02:55.609Z,309.38
2019-05-03T12:03:55.531Z,309.38
2019-05-03T12:04:55.249Z,298.13
2019-05-03T12:05:55.177Z,292.50
2019-05-03T12:06:54.958Z,270.00
2019-05-03T12:07:54.750Z,275.63
2019-05-03T12:08:55.414Z,275.63
2019-05-03T12:09:54.651Z,275.63
2019-05-03T12:10:58.589Z,281.25
2019-05-03T12:11:55.402Z,286.88
2019-05-03T12:12:55.319Z,264.38
2019-05-03T12:14:02.399Z,286.88
2019-05-03T12:14:54.811Z,264.38
2019-05-03T12:15:55.256Z,225.00
2019-05-03T12:17:16.193Z,191.25
2019-05-03T12:17:57.913Z,163.13
2019-05-03T12:18:54.889Z,157.50
2019-05-03T12:19:56.746Z,146.25
2019-05-03T12:20:56.382Z,146.25
2019-05-03T12:21:54.290Z,146.25
2019-05-03T12:22:54.345Z,225.00
2019-05-03T12:23:56.065Z,174.38
2019-05-03T12:24:54.391Z,275.63
2019-05-03T12:25:54.389Z,286.88
2019-05-03T12:26:55.694Z,286.88
2019-05-03T12:27:53.755Z,286.88
2019-05-03T12:28:53.735Z,286.88
2019-05-03T12:29:53.732Z,286.88
2019-05-03T12:30:53.711Z,281.25
2019-05-03T12:31:54.814Z,281.25
2019-05-03T12:32:54.648Z,281.25
2019-05-03T12:33:55.057Z,236.25
2019-05-03T12:34:55.098Z,157.50
2019-05-03T12:35:55.239Z,151.88
2019-05-03T12:36:53.634Z,157.50
2019-05-03T12:37:55.554Z,157.50
2019-05-03T12:38:54.832Z,225.00
2019-05-03T12:39:54.878Z,298.13
2019-05-03T12:40:54.590Z,309.38
2019-05-03T12:41:54.976Z,191.25
2019-05-03T12:42:55.208Z,264.38
2019-05-03T12:43:55.173Z,174.38
2019-05-03T12:44:55.161Z,157.50
2019-05-03T12:45:53.517Z,151.88
2019-05-03T12:46:53.504Z,146.25